sensor_id;sensor_type;location;lat;lon;timestamp;temperature;humidity
41481;DHT22;27217;51.220;5.308;2023-05-07T00:00:05;16.00;99.90
41481;DHT22;27217;51.220;5.308;2023-05-07T00:02:34;16.00;99.90
41481;DHT22;27217;51.220;5.308;2023-05-07T00:05:01;15.90;99.90
41481;DHT22;27217;51.220;5.308;2023-05-07T00:07:30;15.60;99.90
41481;DHT22;27217;51.220;5.308;2023-05-07T00:09:56;15.60;99.90
41481;DHT22;27217;51.220;5.308;2023-05-07T00:12:22;15.60;99.90
41481;DHT22;27217;51.220;5.308;2023-05-07T00:14:49;15.50;99.90
41481;DHT22;27217;51.220;5.308;2023-05-07T00:17:14;15.60;99.90
41481;DHT22;27217;51.220;5.308;2023-05-07T00:19:40;15.70;99.90
41481;DHT22;27217;51.220;5.308;2023-05-07T00:22:07;15.80;99.90
41481;DHT22;27217;51.220;5.308;2023-05-07T00:24:33;15.90;99.90
41481;DHT22;27217;51.220;5.308;2023-05-07T00:26:59;15.90;99.90
41481;DHT22;27217;51.220;5.308;2023-05-07T00:29:25;15.90;99.90
41481;DHT22;27217;51.220;5.308;2023-05-07T00:31:51;15.90;99.90
41481;DHT22;27217;51.220;5.308;2023-05-07T00:34:17;16.00;99.90
41481;DHT22;27217;51.220;5.308;2023-05-07T00:36:43;16.00;99.90
41481;DHT22;27217;51.220;5.308;2023-05-07T00:39:08;16.00;99.90
41481;DHT22;27217;51.220;5.308;2023-05-07T00:41:35;16.00;99.90
41481;DHT22;27217;51.220;5.308;2023-05-07T00:44:00;15.90;99.90
41481;DHT22;27217;51.220;5.308;2023-05-07T00:46:28;15.80;99.90
41481;DHT22;27217;51.220;5.308;2023-05-07T00:48:55;15.90;99.90
41481;DHT22;27217;51.220;5.308;2023-05-07T00:51:22;16.00;99.90
41481;DHT22;27217;51.220;5.308;2023-05-07T00:53:48;16.00;99.90
41481;DHT22;27217;51.220;5.308;2023-05-07T00:56:15;15.90;99.90
41481;DHT22;27217;51.220;5.308;2023-05-07T00:58:41;16.00;99.90
41481;DHT22;27217;51.220;5.308;2023-05-07T01:01:07;16.00;99.90
41481;DHT22;27217;51.220;5.308;2023-05-07T01:03:33;15.90;99.90
41481;DHT22;27217;51.220;5.308;2023-05-07T01:06:00;16.00;99.90
41481;DHT22;27217;51.220;5.308;2023-05-07T01:08:26;15.90;99.90
41481;DHT22;27217;51.220;5.308;2023-05-07T01:10:55;15.80;99.90
41481;DHT22;27217;51.220;5.308;2023-05-07T01:13:22;15.80;99.90
41481;DHT22;27217;51.220;5.308;2023-05-07T01:15:49;15.80;99.90
41481;DHT22;27217;51.220;5.308;2023-05-07T01:18:14;15.70;99.90
41481;DHT22;27217;51.220;5.308;2023-05-07T01:20:41;15.90;99.90
41481;DHT22;27217;51.220;5.308;2023-05-07T01:23:07;16.00;99.90
41481;DHT22;27217;51.220;5.308;2023-05-07T01:25:34;16.00;99.90
41481;DHT22;27217;51.220;5.308;2023-05-07T01:27:59;16.00;99.90
41481;DHT22;27217;51.220;5.308;2023-05-07T01:30:26;15.80;99.90
41481;DHT22;27217;51.220;5.308;2023-05-07T01:32:58;15.80;99.90
41481;DHT22;27217;51.220;5.308;2023-05-07T01:35:29;15.80;99.90
41481;DHT22;27217;51.220;5.308;2023-05-07T01:37:55;15.90;99.90
41481;DHT22;27217;51.220;5.308;2023-05-07T01:40:22;15.90;99.90
41481;DHT22;27217;51.220;5.308;2023-05-07T01:42:48;16.00;99.90
41481;DHT22;27217;51.220;5.308;2023-05-07T01:45:14;15.90;99.90
41481;DHT22;27217;51.220;5.308;2023-05-07T01:47:40;15.80;99.90
41481;DHT22;27217;51.220;5.308;2023-05-07T01:50:07;15.80;99.90
41481;DHT22;27217;51.220;5.308;2023-05-07T01:52:38;15.70;99.90
41481;DHT22;27217;51.220;5.308;2023-05-07T01:55:05;15.70;99.90
41481;DHT22;27217;51.220;5.308;2023-05-07T01:57:32;15.70;99.90
41481;DHT22;27217;51.220;5.308;2023-05-07T01:59:57;15.40;99.90
41481;DHT22;27217;51.220;5.308;2023-05-07T02:02:23;15.30;99.90
41481;DHT22;27217;51.220;5.308;2023-05-07T02:04:50;15.30;99.90
41481;DHT22;27217;51.220;5.308;2023-05-07T02:07:16;15.30;99.90
41481;DHT22;27217;51.220;5.308;2023-05-07T02:09:41;15.40;99.90
41481;DHT22;27217;51.220;5.308;2023-05-07T02:12:07;15.30;99.90
41481;DHT22;27217;51.220;5.308;2023-05-07T02:14:33;15.30;99.90
41481;DHT22;27217;51.220;5.308;2023-05-07T02:16:59;15.30;99.90
41481;DHT22;27217;51.220;5.308;2023-05-07T02:19:25;15.40;99.90
41481;DHT22;27217;51.220;5.308;2023-05-07T02:21:51;15.40;99.90
41481;DHT22;27217;51.220;5.308;2023-05-07T02:24:18;15.40;99.90
41481;DHT22;27217;51.220;5.308;2023-05-07T02:26:44;15.30;99.90
41481;DHT22;27217;51.220;5.308;2023-05-07T02:29:10;15.20;99.90
41481;DHT22;27217;51.220;5.308;2023-05-07T02:31:36;15.30;99.90
41481;DHT22;27217;51.220;5.308;2023-05-07T02:34:02;15.20;99.90
41481;DHT22;27217;51.220;5.308;2023-05-07T02:36:29;15.30;99.90
41481;DHT22;27217;51.220;5.308;2023-05-07T02:38:55;15.30;99.90
41481;DHT22;27217;51.220;5.308;2023-05-07T02:41:21;15.30;99.90
41481;DHT22;27217;51.220;5.308;2023-05-07T02:43:47;15.30;99.90
41481;DHT22;27217;51.220;5.308;2023-05-07T02:46:12;15.30;99.90
41481;DHT22;27217;51.220;5.308;2023-05-07T02:48:38;15.30;99.90
41481;DHT22;27217;51.220;5.308;2023-05-07T02:51:04;15.40;99.90
41481;DHT22;27217;51.220;5.308;2023-05-07T02:53:31;15.50;99.90
41481;DHT22;27217;51.220;5.308;2023-05-07T02:55:58;15.40;99.90
41481;DHT22;27217;51.220;5.308;2023-05-07T02:58:27;15.30;99.90
41481;DHT22;27217;51.220;5.308;2023-05-07T03:00:53;15.30;99.90
41481;DHT22;27217;51.220;5.308;2023-05-07T03:03:20;15.20;99.90
41481;DHT22;27217;51.220;5.308;2023-05-07T03:05:46;15.30;99.90
41481;DHT22;27217;51.220;5.308;2023-05-07T03:08:12;15.30;99.90
41481;DHT22;27217;51.220;5.308;2023-05-07T03:10:38;15.30;99.90
41481;DHT22;27217;51.220;5.308;2023-05-07T03:13:04;15.30;99.90
41481;DHT22;27217;51.220;5.308;2023-05-07T03:15:30;15.30;99.90
41481;DHT22;27217;51.220;5.308;2023-05-07T03:17:56;15.10;99.90
41481;DHT22;27217;51.220;5.308;2023-05-07T03:20:22;15.10;99.90
41481;DHT22;27217;51.220;5.308;2023-05-07T03:22:48;15.10;99.90
41481;DHT22;27217;51.220;5.308;2023-05-07T03:25:14;15.00;99.90
41481;DHT22;27217;51.220;5.308;2023-05-07T03:27:41;15.10;99.90
41481;DHT22;27217;51.220;5.308;2023-05-07T03:30:10;15.00;99.90
41481;DHT22;27217;51.220;5.308;2023-05-07T03:32:37;15.10;99.90
41481;DHT22;27217;51.220;5.308;2023-05-07T03:35:03;15.10;99.90
41481;DHT22;27217;51.220;5.308;2023-05-07T03:37:29;15.20;99.90
41481;DHT22;27217;51.220;5.308;2023-05-07T03:39:55;15.30;99.90
41481;DHT22;27217;51.220;5.308;2023-05-07T03:42:21;15.30;99.90
41481;DHT22;27217;51.220;5.308;2023-05-07T03:44:47;15.20;99.90
41481;DHT22;27217;51.220;5.308;2023-05-07T03:47:13;15.30;99.90
41481;DHT22;27217;51.220;5.308;2023-05-07T03:49:39;15.40;99.90
41481;DHT22;27217;51.220;5.308;2023-05-07T03:52:06;15.40;99.90
41481;DHT22;27217;51.220;5.308;2023-05-07T03:54:34;15.50;99.90
41481;DHT22;27217;51.220;5.308;2023-05-07T03:57:00;15.60;99.90
41481;DHT22;27217;51.220;5.308;2023-05-07T03:59:26;15.60;99.90
41481;DHT22;27217;51.220;5.308;2023-05-07T04:01:52;15.50;99.90
41481;DHT22;27217;51.220;5.308;2023-05-07T04:04:18;15.60;99.90
41481;DHT22;27217;51.220;5.308;2023-05-07T04:06:44;15.70;99.90
41481;DHT22;27217;51.220;5.308;2023-05-07T04:09:10;15.60;99.90
41481;DHT22;27217;51.220;5.308;2023-05-07T04:11:36;15.70;99.90
41481;DHT22;27217;51.220;5.308;2023-05-07T04:14:02;15.80;99.90
41481;DHT22;27217;51.220;5.308;2023-05-07T04:16:28;15.70;99.90
41481;DHT22;27217;51.220;5.308;2023-05-07T04:18:54;15.60;99.90
41481;DHT22;27217;51.220;5.308;2023-05-07T04:21:20;15.70;99.90
41481;DHT22;27217;51.220;5.308;2023-05-07T04:23:47;15.70;99.90
41481;DHT22;27217;51.220;5.308;2023-05-07T04:26:14;15.70;99.90
41481;DHT22;27217;51.220;5.308;2023-05-07T04:28:40;15.70;99.90
41481;DHT22;27217;51.220;5.308;2023-05-07T04:31:06;15.70;99.90
41481;DHT22;27217;51.220;5.308;2023-05-07T04:33:33;15.70;99.90
41481;DHT22;27217;51.220;5.308;2023-05-07T04:36:01;15.80;99.90
41481;DHT22;27217;51.220;5.308;2023-05-07T04:38:31;15.90;99.90
41481;DHT22;27217;51.220;5.308;2023-05-07T04:41:02;15.90;99.90
41481;DHT22;27217;51.220;5.308;2023-05-07T04:43:28;15.90;99.90
41481;DHT22;27217;51.220;5.308;2023-05-07T04:45:54;16.00;99.90
41481;DHT22;27217;51.220;5.308;2023-05-07T04:48:20;16.00;99.90
41481;DHT22;27217;51.220;5.308;2023-05-07T04:50:52;16.00;99.90
41481;DHT22;27217;51.220;5.308;2023-05-07T04:53:18;16.10;99.90
41481;DHT22;27217;51.220;5.308;2023-05-07T04:55:44;16.00;99.90
41481;DHT22;27217;51.220;5.308;2023-05-07T04:58:11;15.90;99.90
41481;DHT22;27217;51.220;5.308;2023-05-07T05:00:37;16.00;99.90
41481;DHT22;27217;51.220;5.308;2023-05-07T05:03:04;16.10;99.90
41481;DHT22;27217;51.220;5.308;2023-05-07T05:05:30;16.10;99.90
41481;DHT22;27217;51.220;5.308;2023-05-07T05:07:56;16.10;99.90
41481;DHT22;27217;51.220;5.308;2023-05-07T05:10:22;16.00;99.90
41481;DHT22;27217;51.220;5.308;2023-05-07T05:12:49;16.10;99.90
41481;DHT22;27217;51.220;5.308;2023-05-07T05:15:15;16.00;99.90
41481;DHT22;27217;51.220;5.308;2023-05-07T05:17:41;16.10;99.90
41481;DHT22;27217;51.220;5.308;2023-05-07T05:20:06;16.20;99.90
41481;DHT22;27217;51.220;5.308;2023-05-07T05:22:33;16.30;99.90
41481;DHT22;27217;51.220;5.308;2023-05-07T05:24:58;16.40;99.90
41481;DHT22;27217;51.220;5.308;2023-05-07T05:27:24;16.50;99.90
41481;DHT22;27217;51.220;5.308;2023-05-07T05:29:50;16.60;99.90
41481;DHT22;27217;51.220;5.308;2023-05-07T05:32:16;16.60;99.90
41481;DHT22;27217;51.220;5.308;2023-05-07T05:34:43;16.50;99.90
41481;DHT22;27217;51.220;5.308;2023-05-07T05:37:09;16.40;99.90
41481;DHT22;27217;51.220;5.308;2023-05-07T05:39:35;16.50;99.90
41481;DHT22;27217;51.220;5.308;2023-05-07T05:42:01;16.70;99.90
41481;DHT22;27217;51.220;5.308;2023-05-07T05:44:27;16.60;99.90
41481;DHT22;27217;51.220;5.308;2023-05-07T05:46:53;16.60;99.90
41481;DHT22;27217;51.220;5.308;2023-05-07T05:49:21;16.60;99.90
41481;DHT22;27217;51.220;5.308;2023-05-07T05:51:47;16.70;99.90
41481;DHT22;27217;51.220;5.308;2023-05-07T05:54:13;16.60;99.90
41481;DHT22;27217;51.220;5.308;2023-05-07T05:56:39;16.60;99.90
41481;DHT22;27217;51.220;5.308;2023-05-07T05:59:05;16.70;99.90
41481;DHT22;27217;51.220;5.308;2023-05-07T06:01:31;16.60;99.90
41481;DHT22;27217;51.220;5.308;2023-05-07T06:03:57;16.70;99.90
41481;DHT22;27217;51.220;5.308;2023-05-07T06:06:23;16.80;99.90
41481;DHT22;27217;51.220;5.308;2023-05-07T06:08:49;16.90;99.90
41481;DHT22;27217;51.220;5.308;2023-05-07T06:11:15;16.90;99.90
41481;DHT22;27217;51.220;5.308;2023-05-07T06:13:41;17.10;99.90
41481;DHT22;27217;51.220;5.308;2023-05-07T06:16:07;17.30;99.90
41481;DHT22;27217;51.220;5.308;2023-05-07T06:18:32;17.40;99.90
41481;DHT22;27217;51.220;5.308;2023-05-07T06:20:58;17.50;99.90
41481;DHT22;27217;51.220;5.308;2023-05-07T06:23:25;17.70;99.90
41481;DHT22;27217;51.220;5.308;2023-05-07T06:25:51;17.60;99.90
41481;DHT22;27217;51.220;5.308;2023-05-07T06:28:17;17.60;99.90
41481;DHT22;27217;51.220;5.308;2023-05-07T06:30:43;17.70;99.90
41481;DHT22;27217;51.220;5.308;2023-05-07T06:33:14;17.70;99.90
41481;DHT22;27217;51.220;5.308;2023-05-07T06:35:40;17.90;99.90
41481;DHT22;27217;51.220;5.308;2023-05-07T06:38:06;18.20;99.90
41481;DHT22;27217;51.220;5.308;2023-05-07T06:40:32;18.40;99.90
41481;DHT22;27217;51.220;5.308;2023-05-07T06:42:58;18.60;99.90
41481;DHT22;27217;51.220;5.308;2023-05-07T06:45:24;18.70;99.90
41481;DHT22;27217;51.220;5.308;2023-05-07T06:47:51;18.90;99.90
41481;DHT22;27217;51.220;5.308;2023-05-07T06:50:17;18.80;99.90
41481;DHT22;27217;51.220;5.308;2023-05-07T06:52:43;18.90;99.90
41481;DHT22;27217;51.220;5.308;2023-05-07T06:55:10;19.20;99.90
41481;DHT22;27217;51.220;5.308;2023-05-07T06:57:37;19.40;99.90
41481;DHT22;27217;51.220;5.308;2023-05-07T07:00:03;19.40;99.90
41481;DHT22;27217;51.220;5.308;2023-05-07T07:02:33;19.40;99.90
41481;DHT22;27217;51.220;5.308;2023-05-07T07:04:58;19.50;99.90
41481;DHT22;27217;51.220;5.308;2023-05-07T07:07:25;19.70;99.90
41481;DHT22;27217;51.220;5.308;2023-05-07T07:09:51;19.80;99.90
41481;DHT22;27217;51.220;5.308;2023-05-07T07:12:17;19.90;99.90
41481;DHT22;27217;51.220;5.308;2023-05-07T07:14:43;20.00;99.90
41481;DHT22;27217;51.220;5.308;2023-05-07T07:17:09;19.80;99.90
41481;DHT22;27217;51.220;5.308;2023-05-07T07:19:35;19.90;99.90
41481;DHT22;27217;51.220;5.308;2023-05-07T07:22:01;19.90;99.90
41481;DHT22;27217;51.220;5.308;2023-05-07T07:24:27;20.00;99.90
41481;DHT22;27217;51.220;5.308;2023-05-07T07:26:53;20.00;99.90
41481;DHT22;27217;51.220;5.308;2023-05-07T07:29:20;19.90;99.90
41481;DHT22;27217;51.220;5.308;2023-05-07T07:31:48;19.90;99.90
41481;DHT22;27217;51.220;5.308;2023-05-07T07:34:15;19.80;99.90
41481;DHT22;27217;51.220;5.308;2023-05-07T07:36:41;19.90;99.90
41481;DHT22;27217;51.220;5.308;2023-05-07T07:39:06;19.90;99.90
41481;DHT22;27217;51.220;5.308;2023-05-07T07:41:32;19.90;99.90
41481;DHT22;27217;51.220;5.308;2023-05-07T07:43:58;19.90;99.90
41481;DHT22;27217;51.220;5.308;2023-05-07T07:46:24;20.20;99.90
41481;DHT22;27217;51.220;5.308;2023-05-07T07:48:50;19.90;99.90
41481;DHT22;27217;51.220;5.308;2023-05-07T07:51:15;20.30;99.90
41481;DHT22;27217;51.220;5.308;2023-05-07T07:53:42;20.40;99.90
41481;DHT22;27217;51.220;5.308;2023-05-07T07:56:08;20.60;99.90
41481;DHT22;27217;51.220;5.308;2023-05-07T07:58:34;20.60;99.90
41481;DHT22;27217;51.220;5.308;2023-05-07T08:01:01;20.80;99.90
41481;DHT22;27217;51.220;5.308;2023-05-07T08:03:27;20.70;99.90
41481;DHT22;27217;51.220;5.308;2023-05-07T08:05:53;20.80;99.90
41481;DHT22;27217;51.220;5.308;2023-05-07T08:08:19;21.10;99.90
41481;DHT22;27217;51.220;5.308;2023-05-07T08:10:48;21.40;99.90
41481;DHT22;27217;51.220;5.308;2023-05-07T08:13:16;21.30;99.90
41481;DHT22;27217;51.220;5.308;2023-05-07T08:15:41;21.10;99.90
41481;DHT22;27217;51.220;5.308;2023-05-07T08:18:07;21.40;99.90
41481;DHT22;27217;51.220;5.308;2023-05-07T08:20:33;21.90;99.90
41481;DHT22;27217;51.220;5.308;2023-05-07T08:23:02;22.20;99.90
41481;DHT22;27217;51.220;5.308;2023-05-07T08:25:28;22.10;99.90
41481;DHT22;27217;51.220;5.308;2023-05-07T08:27:54;22.10;99.90
41481;DHT22;27217;51.220;5.308;2023-05-07T08:30:20;22.10;99.90
41481;DHT22;27217;51.220;5.308;2023-05-07T08:32:46;22.20;99.90
41481;DHT22;27217;51.220;5.308;2023-05-07T08:35:12;21.40;99.90
41481;DHT22;27217;51.220;5.308;2023-05-07T08:37:38;21.10;99.90
41481;DHT22;27217;51.220;5.308;2023-05-07T08:40:05;21.40;99.90
41481;DHT22;27217;51.220;5.308;2023-05-07T08:42:34;21.70;99.90
41481;DHT22;27217;51.220;5.308;2023-05-07T08:45:02;21.60;99.90
41481;DHT22;27217;51.220;5.308;2023-05-07T08:47:39;22.30;99.90
41481;DHT22;27217;51.220;5.308;2023-05-07T08:50:08;22.50;99.90
41481;DHT22;27217;51.220;5.308;2023-05-07T08:52:35;22.80;99.90
41481;DHT22;27217;51.220;5.308;2023-05-07T08:55:02;23.10;99.90
41481;DHT22;27217;51.220;5.308;2023-05-07T08:57:29;23.40;99.90
41481;DHT22;27217;51.220;5.308;2023-05-07T08:59:55;23.50;99.90
41481;DHT22;27217;51.220;5.308;2023-05-07T09:02:21;23.30;99.90
41481;DHT22;27217;51.220;5.308;2023-05-07T09:04:46;23.10;99.90
41481;DHT22;27217;51.220;5.308;2023-05-07T09:07:12;23.20;99.90
41481;DHT22;27217;51.220;5.308;2023-05-07T09:09:38;23.50;99.90
41481;DHT22;27217;51.220;5.308;2023-05-07T09:12:05;23.20;99.90
41481;DHT22;27217;51.220;5.308;2023-05-07T09:14:30;23.10;99.90
41481;DHT22;27217;51.220;5.308;2023-05-07T09:16:56;22.90;99.90
41481;DHT22;27217;51.220;5.308;2023-05-07T09:19:26;22.70;99.90
41481;DHT22;27217;51.220;5.308;2023-05-07T09:22:00;23.30;99.90
41481;DHT22;27217;51.220;5.308;2023-05-07T09:24:26;23.60;99.90
41481;DHT22;27217;51.220;5.308;2023-05-07T09:26:54;23.90;99.90
41481;DHT22;27217;51.220;5.308;2023-05-07T09:29:21;23.60;99.90
41481;DHT22;27217;51.220;5.308;2023-05-07T09:31:47;23.30;99.90
41481;DHT22;27217;51.220;5.308;2023-05-07T09:34:13;22.70;99.90
41481;DHT22;27217;51.220;5.308;2023-05-07T09:36:39;22.70;99.90
41481;DHT22;27217;51.220;5.308;2023-05-07T09:39:05;22.90;99.90
41481;DHT22;27217;51.220;5.308;2023-05-07T09:41:32;23.00;99.90
41481;DHT22;27217;51.220;5.308;2023-05-07T09:43:58;23.50;99.90
41481;DHT22;27217;51.220;5.308;2023-05-07T09:46:36;23.80;99.90
41481;DHT22;27217;51.220;5.308;2023-05-07T09:49:07;23.70;99.90
41481;DHT22;27217;51.220;5.308;2023-05-07T09:51:51;23.40;99.90
41481;DHT22;27217;51.220;5.308;2023-05-07T09:54:18;23.90;99.90
41481;DHT22;27217;51.220;5.308;2023-05-07T09:56:48;23.70;99.90
41481;DHT22;27217;51.220;5.308;2023-05-07T09:59:15;23.20;99.90
41481;DHT22;27217;51.220;5.308;2023-05-07T10:01:43;23.20;99.90
41481;DHT22;27217;51.220;5.308;2023-05-07T10:04:10;23.40;99.90
41481;DHT22;27217;51.220;5.308;2023-05-07T10:06:36;24.30;99.90
41481;DHT22;27217;51.220;5.308;2023-05-07T10:09:06;25.20;99.90
41481;DHT22;27217;51.220;5.308;2023-05-07T10:11:39;25.10;99.90
41481;DHT22;27217;51.220;5.308;2023-05-07T10:14:05;25.00;99.90
41481;DHT22;27217;51.220;5.308;2023-05-07T10:16:34;24.60;99.90
41481;DHT22;27217;51.220;5.308;2023-05-07T10:19:05;25.00;99.90
41481;DHT22;27217;51.220;5.308;2023-05-07T10:21:36;25.20;99.90
41481;DHT22;27217;51.220;5.308;2023-05-07T10:24:09;25.70;99.90
41481;DHT22;27217;51.220;5.308;2023-05-07T10:26:40;26.00;98.50
41481;DHT22;27217;51.220;5.308;2023-05-07T10:29:14;26.20;97.70
41481;DHT22;27217;51.220;5.308;2023-05-07T10:34:37;25.70;97.80
41481;DHT22;27217;51.220;5.308;2023-05-07T10:37:05;25.60;97.80
41481;DHT22;27217;51.220;5.308;2023-05-07T10:39:31;24.30;99.90
41481;DHT22;27217;51.220;5.308;2023-05-07T10:42:06;24.90;99.90
41481;DHT22;27217;51.220;5.308;2023-05-07T10:44:32;24.90;99.90
41481;DHT22;27217;51.220;5.308;2023-05-07T10:47:09;25.00;99.90
41481;DHT22;27217;51.220;5.308;2023-05-07T10:50:21;25.20;99.90
41481;DHT22;27217;51.220;5.308;2023-05-07T10:52:24;25.30;99.80
41481;DHT22;27217;51.220;5.308;2023-05-07T10:57:43;24.60;99.90
41481;DHT22;27217;51.220;5.308;2023-05-07T11:05:27;23.70;99.90
41481;DHT22;27217;51.220;5.308;2023-05-07T11:08:04;23.20;99.90
41481;DHT22;27217;51.220;5.308;2023-05-07T11:10:54;22.80;99.90
41481;DHT22;27217;51.220;5.308;2023-05-07T11:16:21;22.60;99.90
41481;DHT22;27217;51.220;5.308;2023-05-07T11:18:50;22.60;99.90
41481;DHT22;27217;51.220;5.308;2023-05-07T11:21:36;22.90;99.90
41481;DHT22;27217;51.220;5.308;2023-05-07T11:24:03;23.10;99.90
41481;DHT22;27217;51.220;5.308;2023-05-07T11:26:46;23.20;99.90
41481;DHT22;27217;51.220;5.308;2023-05-07T11:29:19;22.70;99.90
41481;DHT22;27217;51.220;5.308;2023-05-07T11:31:53;22.40;99.90
41481;DHT22;27217;51.220;5.308;2023-05-07T11:34:24;22.60;99.90
41481;DHT22;27217;51.220;5.308;2023-05-07T11:36:51;22.70;99.90
41481;DHT22;27217;51.220;5.308;2023-05-07T11:41:50;22.90;99.90
41481;DHT22;27217;51.220;5.308;2023-05-07T11:44:16;22.90;99.90
41481;DHT22;27217;51.220;5.308;2023-05-07T11:46:45;22.60;99.90
41481;DHT22;27217;51.220;5.308;2023-05-07T11:49:11;22.00;99.90
41481;DHT22;27217;51.220;5.308;2023-05-07T11:51:37;22.50;99.90
41481;DHT22;27217;51.220;5.308;2023-05-07T11:54:04;22.90;99.90
41481;DHT22;27217;51.220;5.308;2023-05-07T11:56:34;22.80;99.90
41481;DHT22;27217;51.220;5.308;2023-05-07T11:59:04;23.00;99.90
41481;DHT22;27217;51.220;5.308;2023-05-07T12:01:31;22.40;99.90
41481;DHT22;27217;51.220;5.308;2023-05-07T12:03:57;22.00;99.90
41481;DHT22;27217;51.220;5.308;2023-05-07T12:06:22;22.20;99.90
41481;DHT22;27217;51.220;5.308;2023-05-07T12:08:48;22.20;99.90
41481;DHT22;27217;51.220;5.308;2023-05-07T12:11:23;22.40;99.90
41481;DHT22;27217;51.220;5.308;2023-05-07T12:13:49;22.20;99.90
41481;DHT22;27217;51.220;5.308;2023-05-07T12:16:15;22.20;99.90
41481;DHT22;27217;51.220;5.308;2023-05-07T12:18:41;22.10;99.90
41481;DHT22;27217;51.220;5.308;2023-05-07T12:21:07;21.80;99.90
41481;DHT22;27217;51.220;5.308;2023-05-07T12:23:35;21.60;99.90
41481;DHT22;27217;51.220;5.308;2023-05-07T12:26:01;21.40;99.90
41481;DHT22;27217;51.220;5.308;2023-05-07T12:28:28;20.70;99.90
41481;DHT22;27217;51.220;5.308;2023-05-07T12:30:54;20.40;99.90
41481;DHT22;27217;51.220;5.308;2023-05-07T12:33:25;19.90;99.90
41481;DHT22;27217;51.220;5.308;2023-05-07T12:35:53;19.90;99.90
41481;DHT22;27217;51.220;5.308;2023-05-07T12:38:20;19.80;99.90
41481;DHT22;27217;51.220;5.308;2023-05-07T12:40:49;20.00;99.90
41481;DHT22;27217;51.220;5.308;2023-05-07T12:43:26;20.30;99.90
41481;DHT22;27217;51.220;5.308;2023-05-07T12:45:54;20.40;99.90
41481;DHT22;27217;51.220;5.308;2023-05-07T12:48:21;20.20;99.90
41481;DHT22;27217;51.220;5.308;2023-05-07T12:50:51;20.20;99.90
41481;DHT22;27217;51.220;5.308;2023-05-07T12:53:20;20.60;99.90
41481;DHT22;27217;51.220;5.308;2023-05-07T12:55:49;21.10;99.90
41481;DHT22;27217;51.220;5.308;2023-05-07T12:58:30;20.60;99.90
41481;DHT22;27217;51.220;5.308;2023-05-07T13:00:59;20.40;99.90
41481;DHT22;27217;51.220;5.308;2023-05-07T13:03:29;20.60;99.90
41481;DHT22;27217;51.220;5.308;2023-05-07T13:06:02;21.10;99.90
41481;DHT22;27217;51.220;5.308;2023-05-07T13:08:31;20.70;99.90
41481;DHT22;27217;51.220;5.308;2023-05-07T13:10:59;20.90;99.90
41481;DHT22;27217;51.220;5.308;2023-05-07T13:13:31;20.90;99.90
41481;DHT22;27217;51.220;5.308;2023-05-07T13:15:57;20.40;99.90
41481;DHT22;27217;51.220;5.308;2023-05-07T13:18:28;20.00;99.90
41481;DHT22;27217;51.220;5.308;2023-05-07T13:20:54;20.00;99.90
41481;DHT22;27217;51.220;5.308;2023-05-07T13:23:21;20.30;99.90
41481;DHT22;27217;51.220;5.308;2023-05-07T13:25:48;20.10;99.90
41481;DHT22;27217;51.220;5.308;2023-05-07T13:28:14;20.40;99.90
41481;DHT22;27217;51.220;5.308;2023-05-07T13:30:40;20.60;99.90
41481;DHT22;27217;51.220;5.308;2023-05-07T13:33:06;20.70;99.90
41481;DHT22;27217;51.220;5.308;2023-05-07T13:35:32;20.40;99.90
41481;DHT22;27217;51.220;5.308;2023-05-07T13:37:58;20.10;99.90
41481;DHT22;27217;51.220;5.308;2023-05-07T13:40:24;20.10;99.90
41481;DHT22;27217;51.220;5.308;2023-05-07T13:42:51;20.30;99.90
41481;DHT22;27217;51.220;5.308;2023-05-07T13:45:18;20.40;99.90
41481;DHT22;27217;51.220;5.308;2023-05-07T13:47:45;20.60;99.90
41481;DHT22;27217;51.220;5.308;2023-05-07T13:50:11;20.60;99.90
41481;DHT22;27217;51.220;5.308;2023-05-07T13:52:40;21.00;99.90
41481;DHT22;27217;51.220;5.308;2023-05-07T13:55:07;21.00;99.90
41481;DHT22;27217;51.220;5.308;2023-05-07T13:57:33;20.90;99.90
41481;DHT22;27217;51.220;5.308;2023-05-07T13:59:59;20.60;99.90
41481;DHT22;27217;51.220;5.308;2023-05-07T14:02:25;20.30;99.90
41481;DHT22;27217;51.220;5.308;2023-05-07T14:04:51;20.40;99.90
41481;DHT22;27217;51.220;5.308;2023-05-07T14:07:17;20.50;99.90
41481;DHT22;27217;51.220;5.308;2023-05-07T14:09:43;20.50;99.90
41481;DHT22;27217;51.220;5.308;2023-05-07T14:12:10;20.30;99.90
41481;DHT22;27217;51.220;5.308;2023-05-07T14:14:36;20.30;99.90
41481;DHT22;27217;51.220;5.308;2023-05-07T14:17:02;20.30;99.90
41481;DHT22;27217;51.220;5.308;2023-05-07T14:19:28;20.30;99.90
41481;DHT22;27217;51.220;5.308;2023-05-07T14:21:53;20.70;99.90
41481;DHT22;27217;51.220;5.308;2023-05-07T14:24:20;20.50;99.90
41481;DHT22;27217;51.220;5.308;2023-05-07T14:26:46;20.30;99.90
41481;DHT22;27217;51.220;5.308;2023-05-07T14:29:12;20.40;99.90
41481;DHT22;27217;51.220;5.308;2023-05-07T14:31:38;20.80;99.90
41481;DHT22;27217;51.220;5.308;2023-05-07T14:34:04;20.90;99.90
41481;DHT22;27217;51.220;5.308;2023-05-07T14:36:30;20.90;99.90
41481;DHT22;27217;51.220;5.308;2023-05-07T14:38:57;21.00;99.90
41481;DHT22;27217;51.220;5.308;2023-05-07T14:41:24;21.40;99.90
41481;DHT22;27217;51.220;5.308;2023-05-07T14:43:50;21.30;99.90
41481;DHT22;27217;51.220;5.308;2023-05-07T14:46:17;21.30;99.90
41481;DHT22;27217;51.220;5.308;2023-05-07T14:48:46;21.10;99.90
41481;DHT22;27217;51.220;5.308;2023-05-07T14:51:13;20.60;99.90
41481;DHT22;27217;51.220;5.308;2023-05-07T14:53:40;20.90;99.90
41481;DHT22;27217;51.220;5.308;2023-05-07T14:56:06;20.80;99.90
41481;DHT22;27217;51.220;5.308;2023-05-07T14:58:32;20.50;99.90
41481;DHT22;27217;51.220;5.308;2023-05-07T15:00:59;20.70;99.90
41481;DHT22;27217;51.220;5.308;2023-05-07T15:03:25;21.00;99.90
41481;DHT22;27217;51.220;5.308;2023-05-07T15:05:51;21.70;99.90
41481;DHT22;27217;51.220;5.308;2023-05-07T15:08:17;21.60;99.90
41481;DHT22;27217;51.220;5.308;2023-05-07T15:10:43;22.20;99.90
41481;DHT22;27217;51.220;5.308;2023-05-07T15:13:10;22.80;99.90
41481;DHT22;27217;51.220;5.308;2023-05-07T15:15:36;23.20;99.90
41481;DHT22;27217;51.220;5.308;2023-05-07T15:18:04;24.10;99.90
41481;DHT22;27217;51.220;5.308;2023-05-07T15:20:30;24.50;99.90
41481;DHT22;27217;51.220;5.308;2023-05-07T15:22:56;24.80;99.90
41481;DHT22;27217;51.220;5.308;2023-05-07T15:25:23;25.20;99.90
41481;DHT22;27217;51.220;5.308;2023-05-07T15:27:49;25.70;99.90
41481;DHT22;27217;51.220;5.308;2023-05-07T15:30:15;25.20;99.90
41481;DHT22;27217;51.220;5.308;2023-05-07T15:32:41;25.70;99.10
41481;DHT22;27217;51.220;5.308;2023-05-07T15:35:07;25.70;98.60
41481;DHT22;27217;51.220;5.308;2023-05-07T15:37:35;25.70;99.10
41481;DHT22;27217;51.220;5.308;2023-05-07T15:40:00;25.10;98.00
41481;DHT22;27217;51.220;5.308;2023-05-07T15:42:28;25.20;99.90
41481;DHT22;27217;51.220;5.308;2023-05-07T15:44:54;25.70;98.00